createdAt,value
2023-01-13T00:00:49.377Z,61.11
2023-01-13T00:01:49.520Z,60.93
2023-01-13T00:02:49.637Z,60.98
2023-01-13T00:03:49.807Z,61.07
2023-01-13T00:04:49.934Z,61.38
2023-01-13T00:05:50.119Z,60.98
2023-01-13T00:06:50.126Z,60.89
2023-01-13T00:07:50.210Z,61.20
2023-01-13T00:08:50.354Z,61.16
2023-01-13T00:09:50.416Z,61.16
2023-01-13T00:10:50.536Z,61.20
2023-01-13T00:11:50.669Z,61.11
2023-01-13T00:12:50.874Z,61.11
2023-01-13T00:13:51.934Z,60.98
2023-01-13T00:14:51.048Z,60.98
2023-01-13T00:15:51.272Z,60.84
2023-01-13T00:16:51.282Z,60.76
2023-01-13T00:17:51.417Z,60.67
2023-01-13T00:18:51.670Z,61.07
2023-01-13T00:19:51.679Z,60.84
2023-01-13T00:20:51.882Z,60.89
2023-01-13T00:21:51.922Z,60.93
2023-01-13T00:22:52.021Z,61.25
2023-01-13T00:23:52.193Z,61.20
2023-01-13T00:24:52.422Z,61.38
2023-01-13T00:25:52.444Z,61.29
2023-01-13T00:26:52.525Z,61.38
2023-01-13T00:27:52.650Z,61.56
2023-01-13T00:28:52.808Z,61.93
2023-01-13T00:29:52.890Z,61.93
2023-01-13T00:30:53.133Z,62.21
2023-01-13T00:31:53.320Z,61.93
2023-01-13T00:32:53.284Z,62.49
2023-01-13T00:33:53.448Z,62.30
2023-01-13T00:34:53.589Z,62.96
2023-01-13T00:35:53.739Z,63.24
2023-01-13T00:36:53.782Z,63.48
2023-01-13T00:37:53.887Z,63.24
2023-01-13T00:38:54.060Z,63.39
2023-01-13T00:39:54.151Z,63.44
2023-01-13T00:40:54.240Z,63.63
2023-01-13T00:41:54.375Z,63.77
2023-01-13T00:42:54.447Z,64.07
2023-01-13T00:43:54.559Z,64.36
2023-01-13T00:44:54.726Z,64.86
2023-01-13T00:45:54.926Z,65.32
2023-01-13T00:46:54.969Z,65.73
2023-01-13T00:47:55.176Z,66.63
2023-01-13T00:48:55.196Z,67.32
2023-01-13T00:49:55.281Z,70.39
2023-01-13T00:50:55.436Z,71.85
2023-01-13T00:51:55.506Z,74.01
2023-01-13T00:52:55.652Z,83.24
2023-01-13T00:53:55.813Z,95.00
2023-01-13T00:54:55.886Z,101.69
2023-01-13T00:55:56.022Z,122.52
2023-01-13T00:56:56.194Z,140.11
2023-01-13T00:57:56.300Z,152.26
2023-01-13T00:58:56.437Z,152.68
2023-01-13T00:59:56.556Z,153.80
2023-01-13T01:00:56.809Z,166.54
2023-01-13T01:01:56.870Z,172.39
2023-01-13T01:02:56.852Z,166.88
2023-01-13T01:03:57.000Z,164.09
2023-01-13T01:04:57.055Z,181.58
2023-01-13T01:05:57.151Z,202.71
2023-01-13T01:06:57.281Z,240.79
2023-01-13T01:07:57.411Z,265.11
2023-01-13T01:08:57.559Z,264.05
2023-01-13T01:09:57.633Z,253.05
2023-01-13T01:10:57.701Z,249.01
2023-01-13T01:11:57.831Z,243.65
2023-01-13T01:12:57.928Z,237.31
2023-01-13T01:13:58.058Z,222.81
2023-01-13T01:14:58.239Z,206.41
2023-01-13T01:15:58.434Z,193.50
2023-01-13T01:16:58.401Z,180.40
2023-01-13T01:17:58.484Z,173.83
2023-01-13T01:18:58.797Z,179.82
2023-01-13T01:19:58.742Z,177.34
2023-01-13T01:20:58.865Z,178.09
2023-01-13T01:21:58.996Z,180.60
2023-01-13T01:22:59.090Z,199.02
2023-01-13T01:23:59.231Z,208.24
2023-01-13T01:24:59.356Z,201.59
2023-01-13T01:25:59.489Z,211.60
2023-01-13T01:26:59.564Z,203.97
2023-01-13T01:27:59.698Z,198.30
2023-01-13T01:28:59.819Z,209.71
2023-01-13T01:29:59.889Z,231.78
2023-01-13T01:31:00.135Z,253.05
2023-01-13T01:32:00.177Z,272.60
2023-01-13T01:33:00.325Z,284.66
2023-01-13T01:34:00.420Z,281.97
2023-01-13T01:35:00.542Z,276.27
2023-01-13T01:36:00.613Z,274.42
2023-01-13T01:37:00.733Z,281.25
2023-01-13T01:38:00.852Z,291.49
2023-01-13T01:39:01.001Z,312.89
2023-01-13T01:40:01.113Z,329.55
2023-01-13T01:41:01.197Z,340.49
2023-01-13T01:42:01.320Z,356.39
2023-01-13T01:43:01.402Z,367.16
2023-01-13T01:44:01.537Z,376.00
2023-01-13T01:45:01.642Z,366.75
2023-01-13T01:46:01.773Z,368.81
2023-01-13T01:47:01.933Z,385.23
2023-01-13T01:48:02.008Z,393.41
2023-01-13T01:49:02.091Z,416.51
2023-01-13T01:50:02.269Z,438.71
2023-01-13T01:51:02.314Z,459.25
2023-01-13T01:52:02.447Z,480.77
2023-01-13T01:53:02.553Z,493.95
2023-01-13T01:54:02.647Z,518.53
2023-01-13T01:55:02.839Z,546.58
2023-01-13T01:56:02.949Z,558.49
2023-01-13T01:57:03.038Z,559.89
2023-01-13T01:58:03.237Z,561.78
2023-01-13T01:59:03.264Z,567.03
2023-01-13T02:00:03.435Z,588.04
2023-01-13T02:01:03.699Z,593.80
2023-01-13T02:02:03.784Z,585.97
2023-01-13T02:03:03.749Z,598.06
2023-01-13T02:04:03.881Z,586.48
2023-01-13T02:05:04.128Z,608.42
2023-01-13T02:06:04.125Z,623.21
2023-01-13T02:07:04.303Z,627.31
2023-01-13T02:08:04.390Z,639.34
2023-01-13T02:09:04.526Z,648.04
2023-01-13T02:10:04.675Z,651.20
2023-01-13T02:11:04.891Z,658.92
2023-01-13T02:12:04.885Z,665.50
2023-01-13T02:13:05.067Z,667.50
2023-01-13T02:14:05.180Z,657.63
2023-01-13T02:15:05.343Z,658.28
2023-01-13T02:16:05.403Z,656.98
2023-01-13T02:17:05.557Z,669.51
2023-01-13T02:18:05.582Z,672.21
2023-01-13T02:19:05.735Z,661.54
2023-01-13T02:20:05.904Z,641.18
2023-01-13T02:21:05.962Z,623.79
2023-01-13T02:22:06.045Z,616.30
2023-01-13T02:23:07.214Z,610.09
2023-01-13T02:24:06.335Z,612.34
2023-01-13T02:25:06.718Z,615.16
2023-01-13T02:26:06.570Z,619.16
2023-01-13T02:27:06.745Z,637.51
2023-01-13T02:28:06.849Z,646.16
2023-01-13T02:29:06.960Z,641.80
2023-01-13T02:30:07.130Z,639.34
2023-01-13T02:31:07.181Z,624.96
2023-01-13T02:32:07.299Z,615.73
2023-01-13T02:33:07.409Z,608.42
2023-01-13T02:34:07.497Z,599.13
2023-01-13T02:35:07.785Z,605.11
2023-01-13T02:36:07.836Z,612.90
2023-01-13T02:37:07.888Z,619.73
2023-01-13T02:38:08.057Z,622.04
2023-01-13T02:39:08.138Z,614.59
2023-01-13T02:40:08.302Z,619.73
2023-01-13T02:41:08.341Z,626.13
2023-01-13T02:42:08.438Z,619.16
2023-01-13T02:43:08.549Z,620.89
2023-01-13T02:44:08.646Z,622.63
2023-01-13T02:45:08.845Z,614.03
2023-01-13T02:46:08.932Z,617.44
2023-01-13T02:47:09.011Z,617.44
2023-01-13T02:48:09.116Z,624.38
2023-01-13T02:49:09.213Z,640.57
2023-01-13T02:50:09.434Z,644.28
2023-01-13T02:51:09.516Z,649.30
2023-01-13T02:52:09.526Z,645.53
2023-01-13T02:53:09.696Z,664.84
2023-01-13T02:54:09.793Z,662.20
2023-01-13T02:55:09.993Z,664.18
2023-01-13T02:56:10.004Z,661.54
2023-01-13T02:57:10.142Z,658.28
2023-01-13T02:58:10.245Z,659.58
2023-01-13T02:59:10.326Z,648.04
2023-01-13T03:00:10.474Z,653.12
2023-01-13T03:01:10.670Z,644.91
2023-01-13T03:02:10.860Z,634.47
2023-01-13T03:03:10.781Z,630.28
2023-01-13T03:04:10.893Z,623.79
2023-01-13T03:05:10.994Z,616.30
2023-01-13T03:06:11.142Z,605.66
2023-01-13T03:07:11.264Z,601.29
2023-01-13T03:08:11.366Z,592.21
2023-01-13T03:09:11.494Z,594.33
2023-01-13T03:10:11.573Z,587.00
2023-01-13T03:11:11.776Z,584.43
2023-01-13T03:12:11.849Z,590.12
2023-01-13T03:13:11.911Z,596.98
2023-01-13T03:14:12.042Z,598.06
2023-01-13T03:15:12.133Z,592.21
2023-01-13T03:16:12.366Z,601.29
2023-01-13T03:17:12.385Z,603.47
2023-01-13T03:18:12.483Z,605.11
2023-01-13T03:19:12.610Z,611.21
2023-01-13T03:20:12.696Z,598.59
2023-01-13T03:21:12.934Z,600.21
2023-01-13T03:22:12.949Z,594.33
2023-01-13T03:23:13.060Z,587.52
2023-01-13T03:24:13.192Z,581.37
2023-01-13T03:25:13.281Z,581.37
2023-01-13T03:26:13.381Z,593.27
2023-01-13T03:27:13.456Z,603.47
2023-01-13T03:28:13.556Z,606.21
2023-01-13T03:29:13.708Z,606.21
2023-01-13T03:30:13.774Z,605.11
2023-01-13T03:31:13.939Z,599.67
2023-01-13T03:32:14.047Z,604.02
2023-01-13T03:33:14.686Z,608.98
2023-01-13T03:34:14.247Z,611.21
2023-01-13T03:35:14.372Z,614.59
2023-01-13T03:36:14.509Z,614.59
2023-01-13T03:37:14.594Z,612.90
2023-01-13T03:38:14.713Z,610.09
2023-01-13T03:39:14.833Z,608.98
2023-01-13T03:40:14.947Z,605.66
2023-01-13T03:41:15.112Z,601.83
2023-01-13T03:42:15.166Z,593.27
2023-01-13T03:43:15.261Z,592.74
2023-01-13T03:44:15.352Z,595.92
2023-01-13T03:45:15.471Z,599.67
2023-01-13T03:46:15.669Z,597.52
2023-01-13T03:47:15.832Z,596.45
2023-01-13T03:48:15.827Z,595.92
2023-01-13T03:49:15.914Z,599.13
2023-01-13T03:50:16.069Z,606.76
2023-01-13T03:51:16.136Z,599.13
2023-01-13T03:52:16.263Z,600.75
2023-01-13T03:53:16.433Z,610.09
2023-01-13T03:54:16.481Z,613.46
2023-01-13T03:55:16.621Z,620.31
2023-01-13T03:56:16.744Z,623.79
2023-01-13T03:57:16.864Z,625.55
2023-01-13T03:58:17.030Z,612.34
2023-01-13T03:59:17.109Z,610.65
2023-01-13T04:00:17.206Z,607.87
2023-01-13T04:01:17.398Z,602.38
2023-01-13T04:02:17.554Z,602.92
2023-01-13T04:03:17.530Z,611.21
2023-01-13T04:04:17.639Z,610.09
2023-01-13T04:05:17.763Z,609.54
2023-01-13T04:06:17.920Z,619.73
2023-01-13T04:07:18.000Z,620.31
2023-01-13T04:08:18.122Z,611.21
2023-01-13T04:09:18.148Z,605.66
2023-01-13T04:10:18.270Z,610.09
2023-01-13T04:11:18.397Z,613.46
2023-01-13T04:12:18.588Z,614.59
2023-01-13T04:13:18.625Z,606.21
2023-01-13T04:14:18.745Z,609.54
2023-01-13T04:15:18.845Z,607.32
2023-01-13T04:16:18.969Z,605.11
2023-01-13T04:17:19.099Z,600.21
2023-01-13T04:18:19.157Z,610.09
2023-01-13T04:19:19.303Z,618.01
2023-01-13T04:20:19.394Z,624.96
2023-01-13T04:21:19.516Z,618.58
2023-01-13T04:22:19.698Z,620.89
2023-01-13T04:23:19.780Z,624.38
2023-01-13T04:24:19.793Z,620.31
2023-01-13T04:25:19.937Z,624.38
2023-01-13T04:26:20.046Z,630.87
2023-01-13T04:27:20.142Z,629.09
2023-01-13T04:28:20.253Z,629.68
2023-01-13T04:29:20.359Z,637.51
2023-01-13T04:30:20.492Z,634.47
2023-01-13T04:31:20.641Z,641.18
2023-01-13T04:32:20.708Z,646.16
2023-01-13T04:33:20.840Z,646.78
2023-01-13T04:34:20.929Z,653.76
2023-01-13T04:35:21.007Z,651.20
2023-01-13T04:36:21.108Z,650.57
2023-01-13T04:37:21.242Z,646.78
2023-01-13T04:38:21.344Z,650.57
2023-01-13T04:39:21.503Z,658.28
2023-01-13T04:40:21.582Z,656.33
2023-01-13T04:41:21.677Z,659.58
2023-01-13T04:42:21.818Z,659.58
2023-01-13T04:43:21.959Z,659.58
2023-01-13T04:44:22.083Z,652.48
2023-01-13T04:45:22.126Z,653.76
2023-01-13T04:46:22.299Z,654.40
2023-01-13T04:47:22.386Z,651.84
2023-01-13T04:48:22.453Z,639.96
2023-01-13T04:49:22.550Z,639.34
2023-01-13T04:50:22.765Z,639.34
2023-01-13T04:51:22.757Z,631.47
2023-01-13T04:52:22.895Z,633.87
2023-01-13T04:53:22.983Z,630.28
2023-01-13T04:54:23.135Z,632.07
2023-01-13T04:55:23.198Z,615.73
2023-01-13T04:56:23.292Z,608.98
2023-01-13T04:57:23.403Z,612.34
2023-01-13T04:58:23.505Z,610.09
2023-01-13T04:59:23.666Z,612.90
2023-01-13T05:00:23.736Z,612.90
2023-01-13T05:01:23.945Z,609.54
2023-01-13T05:02:24.081Z,614.59
2023-01-13T05:03:24.111Z,623.79
2023-01-13T05:04:24.235Z,626.13
2023-01-13T05:05:24.344Z,633.87
2023-01-13T05:06:24.479Z,643.04
2023-01-13T05:07:24.664Z,656.98
2023-01-13T05:08:24.679Z,664.18
2023-01-13T05:09:24.891Z,683.93
2023-01-13T05:10:24.904Z,703.41
2023-01-13T05:11:25.000Z,738.46
2023-01-13T05:12:25.187Z,758.09
2023-01-13T05:13:25.207Z,765.92
2023-01-13T05:14:25.347Z,785.29
2023-01-13T05:15:25.421Z,811.06
2023-01-13T05:16:25.551Z,834.38
2023-01-13T05:17:25.708Z,853.58
2023-01-13T05:18:25.758Z,859.63
2023-01-13T05:19:25.964Z,875.98
2023-01-13T05:20:25.977Z,890.00
2023-01-13T05:21:26.062Z,886.45
2023-01-13T05:22:26.216Z,881.77
2023-01-13T05:23:26.277Z,885.86
2023-01-13T05:24:26.410Z,891.78
2023-01-13T05:25:26.517Z,881.77
2023-01-13T05:26:26.630Z,874.26
2023-01-13T05:27:26.788Z,869.14
2023-01-13T05:28:26.881Z,859.63
2023-01-13T05:29:26.930Z,851.95
2023-01-13T05:30:27.060Z,846.54
2023-01-13T05:31:27.180Z,839.09
2023-01-13T05:32:27.310Z,836.99
2023-01-13T05:33:27.528Z,838.57
2023-01-13T05:34:27.473Z,831.26
2023-01-13T05:35:27.568Z,821.54
2023-01-13T05:36:27.674Z,828.16
2023-01-13T05:37:27.773Z,824.58
2023-01-13T05:38:27.894Z,832.29
2023-01-13T05:39:28.034Z,848.70
2023-01-13T05:40:28.115Z,845.47
2023-01-13T05:41:28.193Z,844.94
2023-01-13T05:42:28.334Z,843.87
2023-01-13T05:43:28.448Z,839.62
2023-01-13T05:44:28.540Z,838.57
2023-01-13T05:45:28.665Z,840.68
2023-01-13T05:46:28.876Z,832.29
2023-01-13T05:47:28.849Z,827.14
2023-01-13T05:48:29.032Z,831.78
2023-01-13T05:49:29.077Z,838.04
2023-01-13T05:50:29.184Z,844.40
2023-01-13T05:51:29.277Z,844.94
2023-01-13T05:52:29.496Z,851.40
2023-01-13T05:53:29.601Z,864.08
2023-01-13T05:54:29.638Z,874.26
2023-01-13T05:55:29.768Z,885.86
2023-01-13T05:56:29.971Z,885.86
2023-01-13T05:57:30.028Z,888.22
2023-01-13T05:58:30.157Z,900.81
2023-01-13T05:59:30.322Z,908.16
2023-01-13T06:00:30.333Z,928.37
2023-01-13T06:01:30.480Z,936.18
2023-01-13T06:02:30.532Z,933.57
2023-01-13T06:03:30.661Z,948.15
2023-01-13T06:04:30.810Z,945.47
2023-01-13T06:05:30.943Z,938.16
2023-01-13T06:06:31.005Z,948.15
2023-01-13T06:07:31.125Z,959.74
2023-01-13T06:08:31.347Z,960.43
2023-01-13T06:09:31.343Z,961.12
2023-01-13T06:10:31.537Z,959.74
2023-01-13T06:11:31.589Z,963.90
2023-01-13T06:12:31.852Z,963.20
2023-01-13T06:13:31.825Z,965.99
2023-01-13T06:14:31.916Z,959.05
2023-01-13T06:15:32.045Z,951.53
2023-01-13T06:16:32.194Z,961.82
2023-01-13T06:17:32.251Z,979.46
2023-01-13T06:18:32.397Z,985.97
2023-01-13T06:19:32.532Z,997.76
2023-01-13T06:20:32.605Z,1006.03
2023-01-13T06:21:33.340Z,1011.36
2023-01-13T06:22:32.952Z,1012.13
2023-01-13T06:23:33.057Z,1015.21
2023-01-13T06:24:33.110Z,1015.21
2023-01-13T06:25:33.261Z,1009.83
2023-01-13T06:26:33.395Z,1015.98
2023-01-13T06:27:33.529Z,1019.86
2023-01-13T06:28:33.668Z,1042.15
2023-01-13T06:29:33.819Z,1062.05
2023-01-13T06:30:33.891Z,1067.15
2023-01-13T06:31:34.063Z,1080.97
2023-01-13T06:32:34.141Z,1078.35
2023-01-13T06:33:34.281Z,1080.97
2023-01-13T06:34:34.426Z,1090.69
2023-01-13T06:35:34.556Z,1097.86
2023-01-13T06:36:34.689Z,1099.67
2023-01-13T06:37:34.852Z,1097.86
2023-01-13T06:38:35.996Z,1096.96
2023-01-13T06:39:35.157Z,1090.69
2023-01-13T06:40:35.277Z,1076.61
2023-01-13T06:41:35.389Z,1065.44
2023-01-13T06:42:35.497Z,1051.18
2023-01-13T06:43:35.714Z,1051.18
2023-01-13T06:44:35.828Z,1042.97
2023-01-13T06:45:35.871Z,1038.10
2023-01-13T06:46:36.097Z,1025.34
2023-01-13T06:47:36.151Z,1022.21
2023-01-13T06:48:36.267Z,1009.83
2023-01-13T06:49:36.392Z,989.62
2023-01-13T06:50:36.507Z,986.70
2023-01-13T06:51:36.603Z,973.03
2023-01-13T06:52:36.862Z,963.90
2023-01-13T06:53:36.899Z,960.43
2023-01-13T06:54:36.978Z,943.46
2023-01-13T06:55:37.105Z,932.26
2023-01-13T06:56:37.208Z,913.76
2023-01-13T06:57:37.384Z,903.25
2023-01-13T06:58:38.032Z,892.38
2023-01-13T06:59:37.480Z,882.35
2023-01-13T07:00:37.673Z,882.35
2023-01-13T07:01:37.897Z,869.14
2023-01-13T07:02:37.899Z,859.63
2023-01-13T07:03:37.964Z,846.54
2023-01-13T07:04:38.046Z,833.33
2023-01-13T07:05:38.234Z,813.53
2023-01-13T07:06:38.259Z,799.88
2023-01-13T07:07:38.394Z,786.22
2023-01-13T07:08:38.532Z,777.52
2023-01-13T07:09:38.693Z,768.12
2023-01-13T07:10:38.747Z,751.69
2023-01-13T07:11:38.844Z,752.11
2023-01-13T07:12:39.015Z,743.40
2023-01-13T07:13:39.106Z,736.83
2023-01-13T07:14:39.176Z,736.83
2023-01-13T07:15:39.277Z,731.98
2023-01-13T07:16:39.443Z,738.46
2023-01-13T07:17:39.485Z,742.58
2023-01-13T07:18:39.640Z,754.66
2023-01-13T07:19:39.755Z,746.73
2023-01-13T07:20:39.835Z,737.65
2023-01-13T07:21:39.982Z,738.46
2023-01-13T07:22:40.141Z,739.28
2023-01-13T07:23:40.277Z,737.65
2023-01-13T07:24:40.283Z,735.21
2023-01-13T07:25:40.418Z,727.98
2023-01-13T07:26:40.563Z,720.90
2023-01-13T07:27:40.619Z,717.02
2023-01-13T07:28:40.778Z,710.91
2023-01-13T07:29:40.850Z,710.15
2023-01-13T07:30:40.955Z,707.14
2023-01-13T07:31:41.116Z,697.52
2023-01-13T07:32:41.172Z,698.25
2023-01-13T07:33:41.284Z,692.45
2023-01-13T07:34:41.435Z,693.90
2023-01-13T07:35:41.492Z,692.45
2023-01-13T07:36:41.610Z,686.04
2023-01-13T07:37:41.732Z,683.23
2023-01-13T07:38:41.864Z,677.67
2023-01-13T07:39:42.011Z,664.18
2023-01-13T07:40:42.094Z,660.89
2023-01-13T07:41:42.200Z,660.23
2023-01-13T07:42:42.349Z,655.04
2023-01-13T07:43:43.071Z,652.48
2023-01-13T07:44:42.568Z,644.28
2023-01-13T07:45:42.835Z,638.73
2023-01-13T07:46:42.813Z,637.51
2023-01-13T07:47:42.920Z,634.47
2023-01-13T07:48:43.108Z,638.12
2023-01-13T07:49:43.127Z,636.29
2023-01-13T07:50:44.236Z,640.57
2023-01-13T07:51:43.354Z,643.66
2023-01-13T07:52:43.520Z,646.78
2023-01-13T07:53:43.580Z,646.78
2023-01-13T07:54:43.735Z,648.04
2023-01-13T07:55:43.812Z,651.20
2023-01-13T07:56:43.922Z,655.69
2023-01-13T07:57:44.047Z,663.52
2023-01-13T07:58:44.154Z,672.89
2023-01-13T07:59:44.280Z,678.36
2023-01-13T08:00:44.431Z,684.63
2023-01-13T08:01:44.657Z,682.53
2023-01-13T08:02:44.651Z,693.17
2023-01-13T08:03:44.775Z,695.34
2023-01-13T08:04:44.875Z,696.79
2023-01-13T08:05:45.004Z,710.15
2023-01-13T08:06:45.103Z,716.25
2023-01-13T08:07:45.224Z,726.40
2023-01-13T08:08:45.409Z,734.40
2023-01-13T08:09:45.433Z,740.92
2023-01-13T08:10:45.557Z,758.95
2023-01-13T08:11:45.655Z,767.68
2023-01-13T08:12:54.729Z,775.26
2023-01-13T08:13:46.883Z,781.61
2023-01-13T08:14:45.981Z,791.34
2023-01-13T08:15:46.070Z,800.84
2023-01-13T08:16:46.245Z,803.73
2023-01-13T08:17:46.318Z,819.52
2023-01-13T08:18:46.423Z,830.22
2023-01-13T08:19:46.518Z,849.78
2023-01-13T08:20:46.631Z,864.64
2023-01-13T08:21:46.737Z,882.35
2023-01-13T08:22:46.838Z,892.98
2023-01-13T08:23:47.149Z,904.47
2023-01-13T08:24:47.070Z,917.53
2023-01-13T08:25:47.199Z,926.44
2023-01-13T08:26:47.304Z,938.16
2023-01-13T08:27:47.428Z,946.81
2023-01-13T08:28:47.548Z,954.25
2023-01-13T08:29:47.648Z,963.90
2023-01-13T08:30:47.842Z,970.20
2023-01-13T08:31:47.891Z,969.50
2023-01-13T08:32:48.015Z,972.32
2023-01-13T08:33:48.143Z,994.04
2023-01-13T08:34:48.231Z,999.25
2023-01-13T08:35:48.318Z,1002.25
2023-01-13T08:36:48.440Z,1005.27
2023-01-13T08:37:48.555Z,1001.50
2023-01-13T08:38:48.714Z,1015.21
2023-01-13T08:39:48.832Z,1017.53
2023-01-13T08:40:49.052Z,1030.89
2023-01-13T08:41:49.078Z,1030.09
2023-01-13T08:42:49.192Z,1037.30
2023-01-13T08:43:49.485Z,1053.67
2023-01-13T08:44:49.463Z,1072.29
2023-01-13T08:45:49.628Z,1070.57
2023-01-13T08:46:49.706Z,1091.58
2023-01-13T08:47:49.832Z,1106.05
2023-01-13T08:48:49.987Z,1120.91
2023-01-13T08:49:50.122Z,1126.58
2023-01-13T08:50:50.256Z,1135.20
2023-01-13T08:51:50.385Z,1145.92
2023-01-13T08:52:50.503Z,1151.85
2023-01-13T08:53:50.757Z,1155.84
2023-01-13T08:54:51.348Z,1149.87
2023-01-13T08:55:50.915Z,1144.94
2023-01-13T08:56:58.386Z,1157.85
2023-01-13T08:57:52.091Z,1159.86
2023-01-13T08:58:51.320Z,1158.85
2023-01-13T08:59:51.421Z,1159.86
2023-01-13T09:00:51.576Z,1179.33
2023-01-13T09:01:51.762Z,1183.51
2023-01-13T09:02:51.800Z,1195.17
2023-01-13T09:03:52.014Z,1203.79
2023-01-13T09:04:52.061Z,1198.38
2023-01-13T09:05:52.203Z,1194.10
2023-01-13T09:06:52.394Z,1203.79
2023-01-13T09:07:52.517Z,1205.96
2023-01-13T09:08:52.615Z,1202.70
2023-01-13T09:09:52.754Z,1208.14
2023-01-13T09:10:52.910Z,1189.84
2023-01-13T09:11:53.009Z,1200.54
2023-01-13T09:12:53.205Z,1216.95
2023-01-13T09:13:53.293Z,1214.74
2023-01-13T09:14:53.486Z,1218.06
2023-01-13T09:15:53.571Z,1227.02
2023-01-13T09:16:53.657Z,1232.69
2023-01-13T09:17:53.807Z,1239.55
2023-01-13T09:18:53.912Z,1244.18
2023-01-13T09:19:54.075Z,1248.83
2023-01-13T09:20:54.175Z,1248.83
2023-01-13T09:21:54.324Z,1263.01
2023-01-13T09:22:54.482Z,1261.81
2023-01-13T09:23:54.575Z,1261.81
2023-01-13T09:24:54.735Z,1267.81
2023-01-13T09:25:54.852Z,1273.85
2023-01-13T09:26:54.982Z,1283.65
2023-01-13T09:27:55.127Z,1273.85
2023-01-13T09:28:55.272Z,1276.29
2023-01-13T09:29:55.404Z,1271.43
2023-01-13T09:30:55.582Z,1283.65
2023-01-13T09:31:55.662Z,1287.37
2023-01-13T09:32:55.822Z,1284.89
2023-01-13T09:33:55.915Z,1286.13
2023-01-13T09:34:56.054Z,1287.37
2023-01-13T09:35:56.191Z,1267.81
2023-01-13T09:36:56.331Z,1253.52
2023-01-13T09:37:56.492Z,1255.88
2023-01-13T09:38:56.620Z,1238.40
2023-01-13T09:39:56.720Z,1241.86
2023-01-13T09:40:56.871Z,1234.97
2023-01-13T09:41:56.999Z,1237.26
2023-01-13T09:42:57.172Z,1253.52
2023-01-13T09:44:03.005Z,1259.43
2023-01-13T09:44:57.437Z,1270.22
2023-01-13T09:45:57.572Z,1273.85
2023-01-13T09:46:57.669Z,1284.89
2023-01-13T09:47:57.783Z,1284.89
2023-01-13T09:48:57.904Z,1297.38
2023-01-13T09:49:58.040Z,1287.37
2023-01-13T09:50:58.271Z,1292.35
2023-01-13T09:51:58.284Z,1289.85
2023-01-13T09:52:58.458Z,1296.12
2023-01-13T09:53:58.541Z,1304.98
2023-01-13T09:54:58.678Z,1317.87
2023-01-13T09:55:58.819Z,1320.47
2023-01-13T09:56:58.975Z,1320.47
2023-01-13T09:57:59.095Z,1320.47
2023-01-13T09:58:59.192Z,1316.57
2023-01-13T09:59:59.337Z,1317.87
2023-01-13T10:00:59.531Z,1317.87
2023-01-13T10:01:59.595Z,1335.00
2023-01-13T10:02:59.747Z,1332.33
2023-01-13T10:03:59.866Z,1355.33
2023-01-13T10:05:00.004Z,1362.24
2023-01-13T10:06:00.110Z,1386.29
2023-01-13T10:07:00.245Z,1381.99
2023-01-13T10:08:00.339Z,1399.37
2023-01-13T10:09:00.511Z,1411.20
2023-01-13T10:10:00.636Z,1418.70
2023-01-13T10:11:00.717Z,1440.13
2023-01-13T10:12:00.955Z,1454.25
2023-01-13T10:13:01.009Z,1452.67
2023-01-13T10:14:01.102Z,1443.24
2023-01-13T10:15:01.277Z,1441.68
2023-01-13T10:16:03.020Z,1447.94
2023-01-13T10:17:01.528Z,1454.25
2023-01-13T10:18:01.602Z,1475.14
2023-01-13T10:19:01.736Z,1481.69
2023-01-13T10:20:01.936Z,1498.32
2023-01-13T10:21:02.037Z,1494.96
2023-01-13T10:22:02.148Z,1505.07
2023-01-13T10:23:02.232Z,1513.60
2023-01-13T10:24:02.370Z,1496.64
2023-01-13T10:25:02.500Z,1503.38
2023-01-13T10:26:03.029Z,1508.47
2023-01-13T10:27:02.891Z,1494.96
2023-01-13T10:28:02.868Z,1508.47
2023-01-13T10:29:03.174Z,1491.62
2023-01-13T10:30:03.253Z,1496.64
2023-01-13T10:31:03.293Z,1494.96
2023-01-13T10:32:03.480Z,1515.32
2023-01-13T10:33:03.567Z,1500.00
2023-01-13T10:34:03.704Z,1508.47
2023-01-13T10:35:03.837Z,1510.18
2023-01-13T10:36:04.015Z,1499.16
2023-01-13T10:37:04.123Z,1500.00
2023-01-13T10:38:04.277Z,1498.32
2023-01-13T10:39:04.397Z,1511.89
2023-01-13T10:40:04.544Z,1498.32
2023-01-13T10:41:04.640Z,1505.07
2023-01-13T10:42:04.765Z,1507.62
2023-01-13T10:43:04.938Z,1512.75
2023-01-13T10:44:05.944Z,1542.46
2023-01-13T10:45:05.162Z,1559.58
2023-01-13T10:46:05.395Z,1578.01
2023-01-13T10:47:05.425Z,1595.94
2023-01-13T10:48:05.605Z,1614.27
2023-01-13T10:49:05.698Z,1595.94
2023-01-13T10:50:07.049Z,1605.53
2023-01-13T10:51:05.950Z,1620.15
2023-01-13T10:52:06.141Z,1630.04
2023-01-13T10:53:06.253Z,1619.16
2023-01-13T10:54:06.332Z,1631.03
2023-01-13T10:55:06.493Z,1639.04
2023-01-13T10:56:06.610Z,1667.71
2023-01-13T10:57:06.703Z,1676.08
2023-01-13T10:58:06.922Z,1684.54
2023-01-13T10:59:06.982Z,1696.31
2023-01-13T11:00:07.111Z,1712.64
2023-01-13T11:01:07.302Z,1720.36
2023-01-13T11:02:23.753Z,1713.73
2023-01-13T11:03:08.555Z,1701.72
2023-01-13T11:04:07.641Z,1715.94
2023-01-13T11:05:07.819Z,1731.52
2023-01-13T11:06:07.915Z,1727.04
2023-01-13T11:07:08.054Z,1685.61
2023-01-13T11:08:08.179Z,1693.09
2023-01-13T11:09:08.349Z,1684.54
2023-01-13T11:10:08.439Z,1708.25
2023-01-13T11:11:08.583Z,1700.64
2023-01-13T11:12:08.708Z,1680.30
2023-01-13T11:13:08.876Z,1688.80
2023-01-13T11:14:09.327Z,1692.02
2023-01-13T11:15:09.098Z,1687.74
2023-01-13T11:16:09.314Z,1682.42
2023-01-13T11:17:09.359Z,1700.64
2023-01-13T11:18:09.547Z,1709.35
2023-01-13T11:19:09.609Z,1700.64
2023-01-13T11:20:09.745Z,1698.47
2023-01-13T11:21:09.895Z,1679.24
2023-01-13T11:22:10.045Z,1669.79
2023-01-13T11:23:10.169Z,1698.47
2023-01-13T11:24:10.263Z,1721.47
2023-01-13T11:25:10.414Z,1728.16
2023-01-13T11:26:10.524Z,1750.82
2023-01-13T11:27:10.620Z,1764.71
2023-01-13T11:28:10.792Z,1771.73
2023-01-13T11:29:10.878Z,1776.45
2023-01-13T11:30:11.031Z,1799.19
2023-01-13T11:31:11.280Z,1790.74
2023-01-13T11:32:11.310Z,1810.17
2023-01-13T11:33:11.824Z,1823.77
2023-01-13T11:34:11.550Z,1823.77
2023-01-13T11:35:11.683Z,1842.65
2023-01-13T11:36:12.107Z,1840.11
2023-01-13T11:37:11.995Z,1840.11
2023-01-13T11:38:12.083Z,1828.77
2023-01-13T11:39:12.322Z,1825.02
2023-01-13T11:40:12.328Z,1810.17
2023-01-13T11:41:12.486Z,1801.62
2023-01-13T11:42:12.633Z,1760.05
2023-01-13T11:43:12.761Z,1732.64
2023-01-13T11:44:12.870Z,1714.84
2023-01-13T11:45:12.969Z,1670.84
2023-01-13T11:46:13.182Z,1661.48
2023-01-13T11:47:13.240Z,1654.28
2023-01-13T11:48:13.398Z,1619.16
2023-01-13T11:49:13.491Z,1614.27
2023-01-13T11:50:13.668Z,1575.22
2023-01-13T11:51:13.781Z,1525.71
2023-01-13T11:52:13.918Z,1515.32
2023-01-13T11:53:14.056Z,1471.89
2023-01-13T11:54:14.148Z,1429.34
2023-01-13T11:55:14.272Z,1399.37
2023-01-13T11:56:14.430Z,1381.99
2023-01-13T11:57:14.530Z,1370.64
2023-01-13T11:58:14.667Z,1347.12
2023-01-13T11:59:14.753Z,1320.47
2023-01-13T12:00:14.937Z,1313.98
2023-01-13T12:01:15.068Z,1299.90
2023-01-13T12:02:15.216Z,1299.90
2023-01-13T12:03:15.363Z,1293.60
2023-01-13T12:04:15.428Z,1282.42
2023-01-13T12:05:15.587Z,1279.96
2023-01-13T12:06:15.690Z,1252.34
2023-01-13T12:07:15.830Z,1237.26
2023-01-13T12:08:16.036Z,1210.33
2023-01-13T12:09:16.625Z,1193.03
2023-01-13T12:10:16.235Z,1166.96
2023-01-13T12:11:16.528Z,1154.84
2023-01-13T12:12:16.527Z,1159.86
2023-01-13T12:13:16.622Z,1153.85
2023-01-13T12:14:16.713Z,1137.14
2023-01-13T12:15:16.895Z,1134.24
2023-01-13T12:16:16.985Z,1129.44
2023-01-13T12:17:17.073Z,1136.17
2023-01-13T12:18:17.388Z,1128.49
2023-01-13T12:19:17.363Z,1135.20
2023-01-13T12:20:17.499Z,1128.49
2023-01-13T12:21:17.714Z,1119.03
2023-01-13T12:22:17.776Z,1117.15
2023-01-13T12:23:17.923Z,1109.72
2023-01-13T12:24:18.050Z,1105.13